Time;durP1;ratioP1;P1;durP2;ratioP2;P2;SDS_P1;SDS_P2;PMS_P1;PMS_P2;Temp;Humidity;BMP_temperature;BMP_pressure;BME280_temperature;BME280_humidity;BME280_pressure;Samples;Min_cycle;Max_cycle;Signal;HPM_P1;HPM_P2
2022/07/15 00:02:14;;;;;;;7.25;1.67;;;11.60;99.90;;;;;;5003834;28;20552;-81
2022/07/15 00:04:40;;;;;;;6.90;1.33;;;11.70;99.90;;;;;;5001610;28;20041;-79
2022/07/15 00:07:06;;;;;;;8.55;1.13;;;11.80;99.90;;;;;;5002340;28;20041;-79
2022/07/15 00:12:16;;;;;;;3.30;1.13;;;11.90;99.90;;;;;;5009790;28;20529;-81
2022/07/15 00:14:42;;;;;;;6.55;1.73;;;12.00;99.90;;;;;;5010595;28;20041;-80
2022/07/15 00:17:08;;;;;;;5.50;1.80;;;12.10;99.90;;;;;;5003868;28;20559;-79
2022/07/15 00:19:34;;;;;;;9.32;1.70;;;12.20;99.90;;;;;;5004721;28;20040;-79
2022/07/15 00:22:00;;;;;;;4.68;1.10;;;12.40;99.90;;;;;;5009925;28;20064;-79
2022/07/15 00:24:27;;;;;;;9.15;1.40;;;12.50;99.90;;;;;;5004741;28;20492;-79
2022/07/15 00:26:52;;;;;;;10.55;2.13;;;12.70;99.90;;;;;;5001759;28;20120;-79
2022/07/15 00:29:18;;;;;;;7.00;1.23;;;12.80;99.90;;;;;;5004258;28;20040;-79
2022/07/15 00:31:45;;;;;;;10.55;1.75;;;12.80;99.90;;;;;;5005073;28;20131;-79
2022/07/15 00:34:11;;;;;;;9.88;1.73;;;12.90;99.90;;;;;;5002173;28;21720;-79
2022/07/15 00:36:36;;;;;;;9.38;1.40;;;12.90;99.90;;;;;;5004754;28;20095;-80
2022/07/15 00:39:03;;;;;;;5.30;1.10;;;13.00;99.90;;;;;;5006164;28;20041;-79
2022/07/15 00:41:36;;;;;;;9.23;1.23;;;13.00;99.90;;;;;;5004297;28;20085;-79
2022/07/15 00:44:01;;;;;;;7.97;1.17;;;13.00;99.90;;;;;;5020072;28;20030;-79
2022/07/15 00:46:27;;;;;;;6.35;0.90;;;13.10;99.90;;;;;;5005640;28;20098;-79
2022/07/15 00:48:52;;;;;;;6.68;1.15;;;13.00;99.90;;;;;;5006084;28;20160;-79
2022/07/15 00:51:18;;;;;;;5.75;1.10;;;13.10;99.90;;;;;;5018880;28;20050;-79
2022/07/15 00:53:46;;;;;;;10.77;1.20;;;13.20;99.90;;;;;;5000678;28;20084;-79
2022/07/15 00:56:13;;;;;;;6.85;1.23;;;13.20;99.90;;;;;;5023290;28;20152;-79
2022/07/15 00:58:41;;;;;;;6.65;1.58;;;13.20;99.90;;;;;;5003518;28;20045;-82
2022/07/15 01:01:07;;;;;;;7.53;1.73;;;13.30;99.90;;;;;;5000771;28;20076;-79
2022/07/15 01:03:33;;;;;;;7.80;1.45;;;13.30;99.90;;;;;;5002889;28;20049;-82
2022/07/15 01:05:59;;;;;;;5.88;1.38;;;13.30;99.90;;;;;;5002856;28;20042;-80
2022/07/15 01:08:25;;;;;;;9.38;1.42;;;13.30;99.90;;;;;;5005373;28;20042;-79
2022/07/15 01:10:52;;;;;;;6.85;1.63;;;13.30;99.90;;;;;;5003057;28;20041;-81
2022/07/15 01:13:19;;;;;;;6.82;1.42;;;13.30;99.90;;;;;;4999143;28;20045;-79
2022/07/15 01:15:45;;;;;;;8.45;1.38;;;13.50;99.90;;;;;;5016961;28;20045;-79
2022/07/15 01:18:10;;;;;;;4.50;0.98;;;13.50;99.90;;;;;;5008163;28;20049;-80
2022/07/15 01:20:46;;;;;;;7.20;1.25;;;13.50;99.90;;;;;;5004763;28;20049;-79
2022/07/15 01:23:12;;;;;;;8.45;1.00;;;13.50;99.90;;;;;;5018139;28;20041;-79
2022/07/15 01:25:39;;;;;;;9.65;2.03;;;13.50;99.90;;;;;;5001266;28;20061;-79
2022/07/15 01:28:06;;;;;;;10.90;1.70;;;13.50;99.90;;;;;;5004157;28;20041;-80
2022/07/15 01:30:31;;;;;;;5.03;1.23;;;13.60;99.90;;;;;;5001466;28;20508;-80
2022/07/15 01:32:57;;;;;;;8.60;1.35;;;13.60;99.90;;;;;;5019891;28;20037;-80
2022/07/15 01:35:23;;;;;;;5.18;0.90;;;13.70;99.90;;;;;;5000084;28;20046;-79
2022/07/15 01:37:48;;;;;;;8.27;1.77;;;13.60;99.90;;;;;;5023557;28;20065;-79
2022/07/15 01:40:14;;;;;;;10.95;1.60;;;13.70;99.90;;;;;;5009892;28;20408;-80
2022/07/15 01:42:39;;;;;;;6.63;2.35;;;13.70;99.90;;;;;;5005626;28;20060;-81
2022/07/15 01:45:07;;;;;;;5.85;1.25;;;13.70;99.90;;;;;;5001631;28;20534;-80
2022/07/15 01:47:32;;;;;;;9.05;1.45;;;13.70;99.90;;;;;;5002079;28;20045;-79
2022/07/15 01:49:59;;;;;;;7.85;1.38;;;13.70;99.90;;;;;;5009568;28;20091;-80
2022/07/15 01:52:24;;;;;;;9.55;1.48;;;13.70;99.90;;;;;;4999382;28;20038;-79
2022/07/15 01:54:51;;;;;;;5.53;1.10;;;13.70;99.90;;;;;;5000619;28;20114;-80
2022/07/15 01:57:17;;;;;;;10.02;1.42;;;13.70;99.90;;;;;;5003755;28;20044;-80
2022/07/15 01:59:43;;;;;;;5.30;1.48;;;13.70;99.90;;;;;;5003839;28;20041;-79
2022/07/15 02:02:08;;;;;;;5.20;1.45;;;13.70;99.90;;;;;;4989653;28;20160;-79
2022/07/15 02:04:34;;;;;;;9.15;1.33;;;13.60;99.90;;;;;;5001414;28;20136;-81
2022/07/15 02:07:00;;;;;;;8.18;1.60;;;13.60;99.90;;;;;;4999994;28;20128;-80
2022/07/15 02:09:25;;;;;;;5.20;1.27;;;13.60;99.90;;;;;;5006090;28;20057;-79
2022/07/15 02:11:51;;;;;;;9.38;1.50;;;13.70;99.90;;;;;;5002596;28;20045;-79
2022/07/15 02:14:17;;;;;;;8.48;1.70;;;13.70;99.90;;;;;;5016494;28;20038;-81
2022/07/15 02:16:43;;;;;;;8.27;1.35;;;13.70;99.90;;;;;;5007153;28;20124;-80
2022/07/15 02:19:08;;;;;;;7.07;1.20;;;13.60;99.90;;;;;;5013767;28;20053;-79
2022/07/15 02:21:34;;;;;;;8.27;1.23;;;13.50;99.90;;;;;;5020598;28;20108;-79
2022/07/15 02:24:00;;;;;;;7.32;1.80;;;13.60;99.90;;;;;;5002292;28;20088;-79
2022/07/15 02:26:26;;;;;;;8.32;1.88;;;13.50;99.90;;;;;;4999171;28;20045;-79
2022/07/15 02:28:52;;;;;;;8.00;1.33;;;13.50;99.90;;;;;;5006782;28;22386;-82
2022/07/15 02:31:18;;;;;;;6.68;1.33;;;13.40;99.90;;;;;;4999489;28;20099;-80
2022/07/15 02:33:44;;;;;;;7.88;1.73;;;13.40;99.90;;;;;;4994429;28;20041;-80
2022/07/15 02:36:10;;;;;;;12.82;1.52;;;13.30;99.90;;;;;;5000935;28;20041;-79
2022/07/15 02:38:36;;;;;;;14.88;2.42;;;13.30;99.90;;;;;;4999155;28;20037;-79
2022/07/15 02:41:02;;;;;;;9.45;1.73;;;13.30;99.90;;;;;;5002671;28;20587;-80
2022/07/15 02:43:28;;;;;;;7.88;1.65;;;13.30;99.90;;;;;;5004404;28;20104;-79
2022/07/15 02:45:53;;;;;;;5.22;1.20;;;13.20;99.90;;;;;;5002445;28;20038;-81
2022/07/15 02:48:19;;;;;;;7.07;1.55;;;13.10;99.90;;;;;;5020416;28;20033;-79
2022/07/15 02:50:44;;;;;;;8.43;1.83;;;13.10;99.90;;;;;;4997023;28;20038;-79
2022/07/15 02:53:10;;;;;;;7.75;1.70;;;13.10;99.90;;;;;;5002382;28;20400;-79
2022/07/15 02:55:36;;;;;;;10.68;1.30;;;13.00;99.90;;;;;;5002548;28;20052;-79
2022/07/15 02:58:02;;;;;;;6.95;1.33;;;13.00;99.90;;;;;;5003152;28;20117;-78
2022/07/15 03:00:27;;;;;;;9.00;1.33;;;12.90;99.90;;;;;;5006503;28;20041;-79
2022/07/15 03:02:53;;;;;;;9.77;1.40;;;12.90;99.90;;;;;;5005137;28;20099;-79
2022/07/15 03:05:18;;;;;;;10.15;1.50;;;12.80;99.90;;;;;;5018997;28;20858;-79
2022/07/15 03:07:45;;;;;;;8.10;1.70;;;12.80;99.90;;;;;;5006131;28;20049;-79
2022/07/15 03:10:11;;;;;;;6.47;1.52;;;12.80;99.90;;;;;;5017618;28;20049;-81
2022/07/15 03:12:36;;;;;;;8.38;1.48;;;12.80;99.90;;;;;;4990954;28;20042;-80
2022/07/15 03:15:03;;;;;;;6.60;1.27;;;12.70;99.90;;;;;;5003984;28;20157;-79
2022/07/15 03:17:29;;;;;;;7.90;1.67;;;12.70;99.90;;;;;;4990368;28;20124;-79
2022/07/15 03:19:56;;;;;;;5.97;1.45;;;12.70;99.90;;;;;;5020110;28;20125;-80
2022/07/15 03:22:25;;;;;;;9.30;1.52;;;12.60;99.90;;;;;;5004961;28;20124;-79
2022/07/15 03:24:51;;;;;;;7.50;1.60;;;12.60;99.90;;;;;;5006868;28;20034;-81
2022/07/15 03:27:17;;;;;;;7.10;1.45;;;12.60;99.90;;;;;;5004638;28;20033;-79
2022/07/15 03:29:43;;;;;;;11.55;1.48;;;12.50;99.90;;;;;;5002157;28;20046;-79
2022/07/15 03:32:15;;;;;;;8.10;2.08;;;12.50;99.90;;;;;;4999734;28;20037;-79
2022/07/15 03:34:41;;;;;;;6.85;1.13;;;12.50;99.90;;;;;;5004331;28;20057;-80
2022/07/15 03:37:07;;;;;;;8.07;2.17;;;12.60;99.90;;;;;;5003942;28;20066;-79
2022/07/15 03:39:32;;;;;;;6.30;1.20;;;12.50;99.90;;;;;;5023098;28;20160;-79
2022/07/15 03:41:58;;;;;;;10.27;1.52;;;12.50;99.90;;;;;;5003735;28;20091;-79
2022/07/15 03:44:24;;;;;;;4.05;1.45;;;12.50;99.90;;;;;;5004937;28;20065;-79
2022/07/15 03:46:49;;;;;;;4.38;1.33;;;12.40;99.90;;;;;;5006492;28;20049;-79
2022/07/15 03:49:15;;;;;;;7.65;1.52;;;12.50;99.90;;;;;;5006802;28;20038;-79
2022/07/15 03:51:42;;;;;;;6.97;1.00;;;12.50;99.90;;;;;;5017296;28;20061;-80
2022/07/15 03:54:07;;;;;;;4.63;1.23;;;12.60;99.90;;;;;;5019130;28;20054;-80
2022/07/15 03:56:33;;;;;;;4.78;0.90;;;12.50;99.90;;;;;;5003615;28;20042;-79
2022/07/15 03:58:59;;;;;;;7.82;1.35;;;12.80;99.90;;;;;;5020466;28;20048;-78
2022/07/15 04:01:25;;;;;;;6.70;1.30;;;12.60;99.90;;;;;;5004127;28;20037;-78
2022/07/15 04:03:51;;;;;;;8.90;1.40;;;12.60;99.90;;;;;;5010539;28;20144;-79
2022/07/15 04:06:17;;;;;;;7.45;1.95;;;12.60;99.90;;;;;;5001946;28;20416;-78
2022/07/15 04:08:43;;;;;;;8.68;1.52;;;12.50;99.90;;;;;;5002068;28;20042;-79
2022/07/15 04:11:10;;;;;;;5.80;1.20;;;12.60;99.90;;;;;;5009703;28;20470;-79
2022/07/15 04:13:36;;;;;;;8.15;1.60;;;12.60;99.90;;;;;;5004588;28;20070;-79
2022/07/15 04:16:02;;;;;;;5.72;1.27;;;12.60;99.90;;;;;;5009747;28;20163;-79
2022/07/15 04:18:28;;;;;;;12.43;1.45;;;12.70;99.90;;;;;;5010416;28;20073;-79
2022/07/15 04:20:53;;;;;;;4.65;1.25;;;12.90;99.90;;;;;;5000150;28;20099;-80
2022/07/15 04:23:19;;;;;;;5.00;0.90;;;13.10;99.90;;;;;;5004965;28;20049;-79
2022/07/15 04:25:44;;;;;;;7.20;1.00;;;13.30;99.90;;;;;;5001411;28;20042;-79
2022/07/15 04:28:10;;;;;;;7.60;1.23;;;13.30;99.90;;;;;;5018851;28;20041;-80
2022/07/15 04:30:36;;;;;;;6.80;1.42;;;13.50;99.90;;;;;;5017854;28;20042;-79
2022/07/15 04:33:01;;;;;;;6.80;1.30;;;13.70;99.90;;;;;;5002379;28;20048;-81
2022/07/15 04:35:27;;;;;;;7.35;1.35;;;14.20;99.90;;;;;;5000728;28;20224;-79
2022/07/15 04:37:53;;;;;;;5.88;1.50;;;14.50;99.90;;;;;;5009416;28;20048;-79
2022/07/15 04:40:18;;;;;;;3.05;0.95;;;14.40;99.90;;;;;;5001567;28;20049;-79
2022/07/15 04:42:44;;;;;;;6.10;1.00;;;14.50;99.90;;;;;;5013949;28;20491;-79
2022/07/15 04:45:10;;;;;;;4.47;0.82;;;14.50;99.90;;;;;;5021515;28;20041;-80
2022/07/15 04:47:36;;;;;;;5.47;0.90;;;15.00;99.90;;;;;;5007184;28;20052;-78
2022/07/15 04:53:27;;;;;;;5.65;1.10;;;15.90;99.90;;;;;;5001496;28;20091;-80
2022/07/15 04:55:56;;;;;;;6.03;0.77;;;15.70;99.90;;;;;;5016887;28;20053;-80
2022/07/15 04:58:21;;;;;;;5.55;1.13;;;15.40;99.90;;;;;;4999718;28;20068;-81
2022/07/15 05:00:47;;;;;;;9.18;0.90;;;15.20;99.90;;;;;;5005224;28;20072;-80
2022/07/15 05:03:13;;;;;;;6.18;0.98;;;15.00;99.90;;;;;;5017074;28;20049;-77
2022/07/15 05:05:39;;;;;;;3.30;0.50;;;14.90;99.90;;;;;;5008536;28;20041;-80
2022/07/15 05:08:05;;;;;;;3.65;0.57;;;14.70;99.90;;;;;;5006314;28;20045;-80
2022/07/15 05:10:31;;;;;;;5.72;0.85;;;14.70;99.90;;;;;;5001962;28;20135;-84
2022/07/15 05:13:16;;;;;;;4.05;0.73;;;14.60;99.90;;;;;;4999029;28;20068;-83
2022/07/15 05:15:42;;;;;;;5.93;0.60;;;14.50;99.90;;;;;;5005354;28;20041;-81
2022/07/15 05:18:07;;;;;;;5.03;0.82;;;14.40;99.90;;;;;;5006237;28;20045;-80
2022/07/15 05:20:33;;;;;;;6.20;0.63;;;14.40;99.90;;;;;;5020378;28;20052;-81
2022/07/15 05:22:58;;;;;;;4.97;0.55;;;14.30;99.90;;;;;;5020973;28;20105;-81
2022/07/15 05:25:24;;;;;;;6.13;0.70;;;14.30;99.90;;;;;;5006125;28;20045;-81
2022/07/15 05:27:51;;;;;;;6.90;0.77;;;14.30;99.90;;;;;;5008647;28;20104;-80
2022/07/15 05:30:17;;;;;;;5.95;0.80;;;14.30;99.90;;;;;;5022853;28;20124;-81
2022/07/15 05:32:43;;;;;;;4.38;0.73;;;14.30;99.90;;;;;;4989018;28;20137;-81
2022/07/15 05:35:12;;;;;;;3.42;0.50;;;14.20;99.90;;;;;;5015604;28;20046;-82
2022/07/15 05:37:38;;;;;;;6.68;0.50;;;14.20;99.90;;;;;;5022863;28;20037;-79
2022/07/15 05:40:06;;;;;;;3.45;0.40;;;14.20;99.90;;;;;;5003875;28;20214;-80
2022/07/15 05:42:32;;;;;;;6.68;0.80;;;14.20;99.90;;;;;;5021347;28;20136;-81
2022/07/15 05:44:58;;;;;;;4.68;0.88;;;14.20;99.90;;;;;;5023213;28;20132;-82
2022/07/15 05:47:23;;;;;;;6.90;1.17;;;14.20;99.90;;;;;;5004921;28;20049;-82
2022/07/15 05:49:49;;;;;;;6.10;0.70;;;14.10;99.90;;;;;;4985937;28;20057;-82
2022/07/15 05:52:14;;;;;;;5.50;0.68;;;14.20;99.90;;;;;;5023460;28;21089;-81
2022/07/15 05:54:40;;;;;;;5.20;0.35;;;14.50;99.90;;;;;;5009752;28;20384;-80
2022/07/15 05:57:06;;;;;;;8.65;0.93;;;15.10;99.90;;;;;;5002033;28;20041;-82
2022/07/15 05:59:31;;;;;;;3.55;0.60;;;16.10;99.90;;;;;;5011093;28;20038;-80
2022/07/15 06:01:58;;;;;;;15.10;2.10;;;16.90;99.90;;;;;;4992452;28;20042;-80
2022/07/15 06:04:27;;;;;;;8.50;0.68;;;17.70;99.90;;;;;;5013119;28;20080;-78
2022/07/15 06:06:54;;;;;;;5.88;0.93;;;18.30;99.90;;;;;;5002994;28;20072;-83
2022/07/15 06:09:23;;;;;;;5.38;0.30;;;19.40;99.90;;;;;;4999223;28;20500;-80
2022/07/15 06:11:48;;;;;;;1.85;0.32;;;19.30;99.90;;;;;;5015656;28;20053;-80
2022/07/15 06:14:14;;;;;;;4.05;0.40;;;19.60;99.90;;;;;;4993806;28;20041;-80
2022/07/15 06:16:40;;;;;;;4.53;0.50;;;20.10;99.90;;;;;;4991145;28;20045;-82
2022/07/15 06:19:08;;;;;;;3.35;0.60;;;20.50;99.90;;;;;;5007939;28;20045;-81
2022/07/15 06:21:35;;;;;;;2.58;0.40;;;20.90;99.90;;;;;;5012795;28;20045;-81
2022/07/15 06:24:01;;;;;;;2.85;0.30;;;21.20;99.90;;;;;;5011750;28;20052;-82
2022/07/15 06:26:26;;;;;;;4.00;0.40;;;21.50;99.90;;;;;;5026417;28;20415;-81
2022/07/15 06:28:52;;;;;;;6.30;0.90;;;21.70;99.90;;;;;;5007695;28;20508;-78
2022/07/15 06:31:17;;;;;;;5.15;0.70;;;21.90;99.90;;;;;;5019917;28;20041;-81
2022/07/15 06:33:43;;;;;;;3.85;0.55;;;22.00;99.90;;;;;;5015028;28;20124;-80
2022/07/15 06:36:08;;;;;;;3.17;0.40;;;22.30;99.90;;;;;;5015489;28;20068;-82
2022/07/15 06:38:34;;;;;;;4.28;0.38;;;22.40;99.90;;;;;;5017877;28;20052;-77
2022/07/15 06:40:59;;;;;;;1.98;0.32;;;22.60;99.90;;;;;;5031937;28;20033;-78
2022/07/15 06:43:25;;;;;;;2.22;0.20;;;22.60;99.90;;;;;;5012323;28;20046;-82
2022/07/15 06:45:50;;;;;;;2.67;0.20;;;22.60;99.90;;;;;;5011943;28;20049;-80
2022/07/15 06:48:16;;;;;;;2.92;0.28;;;22.70;99.90;;;;;;5016437;28;20049;-80
2022/07/15 06:50:42;;;;;;;3.50;0.30;;;22.70;99.90;;;;;;5012628;28;20030;-77
2022/07/15 06:53:08;;;;;;;2.47;0.30;;;22.90;99.90;;;;;;5022207;28;20075;-80
2022/07/15 06:55:33;;;;;;;4.47;1.00;;;23.00;99.90;;;;;;5020556;28;20030;-77
2022/07/15 06:57:59;;;;;;;1.73;0.20;;;23.10;99.90;;;;;;5013740;28;20131;-80
2022/07/15 07:00:24;;;;;;;3.95;0.40;;;23.20;99.90;;;;;;5002815;28;20115;-81
2022/07/15 07:02:50;;;;;;;1.23;0.30;;;23.40;99.90;;;;;;5013258;28;20048;-80
2022/07/15 07:05:16;;;;;;;11.98;2.47;;;23.50;99.90;;;;;;5029440;28;20065;-80
2022/07/15 07:07:42;;;;;;;1.85;0.45;;;23.60;99.90;;;;;;5013880;28;20076;-81
2022/07/15 07:10:08;;;;;;;6.40;0.45;;;23.60;99.90;;;;;;5021195;28;20076;-78
2022/07/15 07:12:34;;;;;;;6.88;0.50;;;23.70;99.90;;;;;;5012571;28;20625;-82
2022/07/15 07:15:02;;;;;;;0.82;0.20;;;23.60;99.90;;;;;;5025957;28;20050;-82
2022/07/15 07:17:27;;;;;;;4.93;0.63;;;23.60;99.90;;;;;;5006400;28;20571;-82
2022/07/15 07:19:53;;;;;;;7.22;0.50;;;23.70;99.90;;;;;;5011976;28;20131;-82
2022/07/15 07:22:18;;;;;;;3.95;0.40;;;23.80;99.90;;;;;;5006679;28;20045;-83
2022/07/15 07:24:44;;;;;;;5.88;0.30;;;23.90;99.90;;;;;;5010012;28;20057;-83
2022/07/15 07:27:10;;;;;;;10.27;0.40;;;24.00;99.90;;;;;;4970244;28;20045;-81
2022/07/15 07:29:36;;;;;;;2.40;0.68;;;24.10;99.90;;;;;;5001085;28;20105;-81
2022/07/15 07:32:02;;;;;;;3.55;0.40;;;24.10;99.90;;;;;;5008129;28;20120;-81
2022/07/15 07:34:28;;;;;;;3.13;0.50;;;24.20;99.90;;;;;;5015552;28;20084;-80
2022/07/15 07:36:54;;;;;;;1.40;0.30;;;24.30;99.90;;;;;;5026106;28;20045;-77
2022/07/15 07:39:20;;;;;;;1.17;0.20;;;24.40;99.80;;;;;;5006101;28;20060;-77
2022/07/15 07:41:45;;;;;;;5.22;0.80;;;24.10;98.70;;;;;;5010504;28;20124;-81
2022/07/15 07:44:11;;;;;;;2.10;0.28;;;24.00;98.80;;;;;;5028563;28;20073;-80
2022/07/15 07:46:37;;;;;;;4.97;0.30;;;23.90;98.30;;;;;;4996089;28;20042;-81
2022/07/15 07:49:03;;;;;;;1.27;0.20;;;24.00;98.60;;;;;;5010813;28;20066;-80
2022/07/15 07:51:28;;;;;;;0.85;0.20;;;23.90;98.70;;;;;;5022709;28;20052;-80
2022/07/15 07:53:54;;;;;;;1.65;0.30;;;23.70;99.20;;;;;;5009478;28;20053;-77
2022/07/15 07:56:20;;;;;;;8.52;0.43;;;23.50;99.20;;;;;;5008475;28;20037;-78
2022/07/15 07:58:45;;;;;;;2.33;0.17;;;23.80;99.40;;;;;;5024940;28;20056;-80
2022/07/15 08:01:11;;;;;;;1.13;0.20;;;24.00;99.40;;;;;;5027390;28;20057;-80
2022/07/15 08:03:37;;;;;;;2.40;0.30;;;23.70;98.90;;;;;;5005091;28;20049;-77
2022/07/15 08:06:02;;;;;;;3.80;0.50;;;23.70;98.90;;;;;;4997054;28;20049;-79
2022/07/15 08:08:28;;;;;;;4.90;0.60;;;23.70;98.90;;;;;;5024537;28;20049;-81
2022/07/15 08:10:56;;;;;;;4.53;0.50;;;23.90;99.50;;;;;;5009817;28;20037;-78
2022/07/15 08:13:23;;;;;;;3.70;0.20;;;23.90;99.00;;;;;;5026621;28;20038;-81
2022/07/15 08:15:50;;;;;;;1.65;0.52;;;23.60;98.80;;;;;;5012589;28;20037;-78
2022/07/15 08:18:16;;;;;;;1.77;0.20;;;23.20;98.70;;;;;;5010941;28;20040;-80
2022/07/15 08:20:42;;;;;;;1.70;0.30;;;22.90;98.90;;;;;;5011107;28;20624;-81
2022/07/15 08:23:08;;;;;;;1.15;0.30;;;22.80;99.60;;;;;;5009892;28;20071;-80
2022/07/15 08:25:36;;;;;;;7.10;0.30;;;22.70;99.60;;;;;;5012460;28;20037;-81
2022/07/15 08:28:03;;;;;;;2.28;0.20;;;22.80;99.90;;;;;;5026918;28;20393;-81
2022/07/15 08:30:30;;;;;;;2.08;0.35;;;22.60;99.50;;;;;;5023246;28;20037;-80
2022/07/15 08:32:57;;;;;;;1.42;0.50;;;22.40;99.70;;;;;;5012329;28;20084;-80
2022/07/15 08:35:23;;;;;;;1.38;0.30;;;22.20;99.80;;;;;;5010097;28;20049;-79
2022/07/15 08:37:49;;;;;;;1.80;0.30;;;22.10;99.90;;;;;;4991874;28;20045;-77
2022/07/15 08:40:15;;;;;;;4.43;0.55;;;22.00;99.90;;;;;;5014522;28;20059;-81
2022/07/15 08:42:43;;;;;;;5.65;0.50;;;22.00;99.90;;;;;;5006278;28;20526;-81
2022/07/15 08:45:10;;;;;;;1.35;0.35;;;22.10;99.50;;;;;;5012793;28;20060;-81
2022/07/15 08:47:38;;;;;;;2.45;0.22;;;22.10;99.90;;;;;;5030413;28;20042;-81
2022/07/15 08:50:04;;;;;;;1.63;0.35;;;22.30;99.90;;;;;;5022389;28;20037;-81
2022/07/15 08:52:33;;;;;;;0.95;0.28;;;22.50;99.90;;;;;;5025311;28;20089;-79
2022/07/15 08:54:59;;;;;;;0.88;0.30;;;22.80;99.90;;;;;;5029153;28;20037;-80
2022/07/15 08:57:25;;;;;;;0.98;0.20;;;23.00;99.50;;;;;;5011994;28;20052;-80
2022/07/15 08:59:54;;;;;;;2.90;0.70;;;23.30;98.80;;;;;;5022439;28;20502;-81
2022/07/15 09:02:21;;;;;;;0.90;0.38;;;23.70;97.60;;;;;;4997515;28;20164;-79
2022/07/15 09:05:18;;;;;;;0.80;0.17;;;23.90;98.10;;;;;;4998469;28;20045;-82
2022/07/15 09:07:54;;;;;;;4.25;0.30;;;23.70;97.90;;;;;;4985850;28;20135;-81
2022/07/15 09:10:22;;;;;;;2.90;0.60;;;23.80;98.20;;;;;;5010973;28;20051;-77
2022/07/15 09:12:52;;;;;;;1.65;0.30;;;23.60;98.30;;;;;;5005072;28;20056;-79
2022/07/15 09:15:39;;;;;;;3.80;0.20;;;23.20;98.20;;;;;;5009038;28;20045;-79
2022/07/15 09:18:14;;;;;;;2.97;0.20;;;22.90;97.50;;;;;;5010336;28;20128;-80
2022/07/15 09:20:43;;;;;;;2.22;0.40;;;22.60;97.90;;;;;;5012156;28;20121;-81
2022/07/15 09:23:10;;;;;;;2.05;0.20;;;22.40;97.60;;;;;;5021743;28;20448;-82
2022/07/15 09:25:38;;;;;;;1.92;0.20;;;22.10;98.50;;;;;;5005905;28;20041;-81
2022/07/15 09:28:06;;;;;;;3.38;0.25;;;22.10;98.90;;;;;;5011485;28;20052;-82
2022/07/15 09:36:22;;;;;;;2.97;0.30;;;21.30;99.80;;;;;;5013799;28;20072;-81
2022/07/15 09:39:03;;;;;;;2.38;0.30;;;21.30;99.10;;;;;;5007961;28;20038;-77
2022/07/15 09:41:36;;;;;;;2.22;0.20;;;21.20;98.70;;;;;;5012774;28;20056;-81
2022/07/15 09:44:03;;;;;;;2.72;0.30;;;21.10;98.90;;;;;;5026144;28;20886;-82
2022/07/15 09:46:45;;;;;;;1.27;0.20;;;21.00;99.60;;;;;;5009022;28;20045;-80
2022/07/15 09:49:13;;;;;;;2.95;0.50;;;21.10;99.80;;;;;;5023845;28;20176;-81
2022/07/15 09:51:54;;;;;;;1.85;0.30;;;21.10;99.80;;;;;;5025582;28;20202;-81
2022/07/15 09:54:21;;;;;;;1.58;0.40;;;21.00;99.90;;;;;;5003143;28;20045;-78
2022/07/15 09:56:47;;;;;;;1.90;0.40;;;21.00;99.90;;;;;;5022999;28;20041;-79
2022/07/15 09:59:14;;;;;;;2.22;0.20;;;20.90;99.90;;;;;;5008995;28;20041;-78
2022/07/15 10:01:41;;;;;;;2.00;0.30;;;20.90;99.90;;;;;;5009276;28;20111;-81
2022/07/15 10:04:06;;;;;;;1.95;0.20;;;20.90;99.90;;;;;;5018297;28;20046;-80
2022/07/15 10:06:37;;;;;;;1.75;0.20;;;21.00;99.90;;;;;;5008330;28;20104;-81
2022/07/15 10:09:05;;;;;;;0.98;0.20;;;21.10;99.90;;;;;;5021385;28;20140;-77
2022/07/15 10:11:37;;;;;;;1.15;0.20;;;21.20;99.90;;;;;;5006104;28;20033;-80
2022/07/15 10:14:39;;;;;;;3.60;0.25;;;21.20;99.90;;;;;;5012677;28;20049;-79
2022/07/15 10:17:25;;;;;;;13.07;0.60;;;21.30;99.90;;;;;;5020245;28;20496;-81
2022/07/15 10:20:16;;;;;;;10.20;0.43;;;21.30;99.90;;;;;;5026559;28;20046;-81
2022/07/15 10:23:12;;;;;;;5.03;0.20;;;21.20;99.60;;;;;;5011705;28;20038;-79
2022/07/15 10:26:02;;;;;;;6.10;0.30;;;21.00;99.90;;;;;;4994755;28;20049;-78
2022/07/15 10:28:55;;;;;;;2.30;0.30;;;20.80;99.90;;;;;;5005838;28;20454;-82
2022/07/15 10:31:23;;;;;;;1.60;0.20;;;20.60;99.90;;;;;;5026679;28;20045;-77
2022/07/15 10:34:04;;;;;;;5.05;0.35;;;20.60;99.90;;;;;;5023197;28;20045;-79
2022/07/15 10:37:27;;;;;;;;;;;;;;;;;;;;;
2022/07/15 10:40:06;;;;;;;1.23;0.20;;;20.80;99.90;;;;;;5003185;28;20096;-82
2022/07/15 10:43:05;;;;;;;0.90;0.20;;;21.30;99.90;;;;;;5007625;28;20057;-83
2022/07/15 10:45:33;;;;;;;3.03;0.20;;;21.90;99.90;;;;;;5019928;28;20121;-83
2022/07/15 10:48:25;;;;;;;4.68;0.30;;;22.30;99.80;;;;;;5012674;28;20056;-81
2022/07/15 10:50:51;;;;;;;1.02;0.10;;;22.70;99.90;;;;;;5003693;28;20045;-78
2022/07/15 10:53:20;;;;;;;2.50;0.63;;;23.00;99.60;;;;;;5005763;28;20068;-82
2022/07/15 10:55:46;;;;;;;2.50;0.30;;;23.00;99.50;;;;;;4989664;28;20045;-78
2022/07/15 10:58:14;;;;;;;3.10;0.20;;;22.80;99.10;;;;;;5001160;28;20056;-80
2022/07/15 11:00:40;;;;;;;2.05;0.22;;;22.70;98.70;;;;;;4990726;28;20845;-80
2022/07/15 11:03:14;;;;;;;1.88;0.30;;;22.50;98.60;;;;;;5006657;28;20886;-82
2022/07/15 11:05:48;;;;;;;1.95;0.20;;;22.30;99.10;;;;;;5009077;28;20072;-78
2022/07/15 11:08:33;;;;;;;1.77;0.55;;;22.20;99.40;;;;;;5006498;28;20578;-82
2022/07/15 11:11:14;;;;;;;2.75;0.45;;;22.00;99.60;;;;;;4994862;28;20140;-80
2022/07/15 11:13:45;;;;;;;6.00;0.30;;;21.90;99.70;;;;;;5006164;28;20045;-81
2022/07/15 11:16:19;;;;;;;;;;;21.70;99.90;;;;;;5008259;28;20045;-77
2022/07/15 11:18:51;;;;;;;3.47;0.30;;;21.50;99.90;;;;;;5004621;28;19960;-81
2022/07/15 11:21:17;;;;;;;1.45;0.20;;;21.70;99.90;;;;;;5012235;28;20045;-81
2022/07/15 11:23:44;;;;;;;3.67;0.30;;;22.20;99.90;;;;;;5011781;28;20049;-81
2022/07/15 11:26:10;;;;;;;2.95;0.20;;;22.30;99.90;;;;;;4991957;28;20041;-82
2022/07/15 11:28:36;;;;;;;3.30;0.20;;;22.60;99.90;;;;;;5015903;28;20045;-82
2022/07/15 11:31:02;;;;;;;1.63;0.30;;;22.80;99.50;;;;;;5023188;28;20081;-81
2022/07/15 11:33:29;;;;;;;3.17;0.43;;;22.70;99.20;;;;;;5019566;28;20041;-79
2022/07/15 11:36:03;;;;;;;3.92;0.90;;;22.60;99.10;;;;;;5001632;28;20091;-83
2022/07/15 11:38:32;;;;;;;75.22;33.60;;;22.60;98.90;;;;;;5018259;28;20060;-81
2022/07/15 11:46:30;;;;;;;17.73;7.15;;;22.00;99.60;;;;;;5001132;28;20052;-83
2022/07/15 11:48:58;;;;;;;8.98;1.20;;;22.00;99.90;;;;;;5021388;28;20045;-80
2022/07/15 11:51:29;;;;;;;6.13;0.60;;;21.90;99.80;;;;;;5008397;28;20094;-81
2022/07/15 11:53:56;;;;;;;2.88;0.28;;;21.80;99.90;;;;;;5020567;28;20464;-83
2022/07/15 11:56:21;;;;;;;0.98;0.20;;;21.80;99.90;;;;;;5018589;28;20515;-81
2022/07/15 11:58:52;;;;;;;5.22;0.50;;;21.80;99.90;;;;;;5022128;28;20029;-83
2022/07/15 12:01:22;;;;;;;2.10;0.20;;;21.80;99.90;;;;;;5020532;28;20109;-83
2022/07/15 12:03:51;;;;;;;2.13;0.40;;;21.90;99.90;;;;;;5009576;28;20704;-81
2022/07/15 12:06:17;;;;;;;2.83;0.30;;;22.10;99.90;;;;;;5005949;28;20045;-82
2022/07/15 12:08:44;;;;;;;7.65;0.30;;;22.10;99.90;;;;;;5010838;28;20048;-81
2022/07/15 12:11:12;;;;;;;3.75;0.50;;;22.20;99.90;;;;;;4987995;28;20048;-82
2022/07/15 12:14:06;;;;;;;0.73;0.20;;;22.30;99.90;;;;;;5003535;28;20134;-82
2022/07/15 12:16:45;;;;;;;13.35;0.70;;;22.40;99.90;;;;;;5004981;28;20626;-83
2022/07/15 12:20:05;;;;;;;2.45;0.30;;;22.40;99.90;;;;;;5007852;28;20042;-85
2022/07/15 12:22:31;;;;;;;9.20;0.30;;;22.40;99.90;;;;;;4999955;28;20065;-82
2022/07/15 12:24:59;;;;;;;1.20;0.22;;;22.20;99.90;;;;;;5003036;28;20073;-82
2022/07/15 12:27:35;;;;;;;2.75;0.40;;;22.00;99.90;;;;;;5003596;28;20140;-82
2022/07/15 12:30:04;;;;;;;4.03;0.20;;;21.80;99.90;;;;;;5009799;28;20038;-79
2022/07/15 12:32:31;;;;;;;8.45;0.35;;;21.70;99.70;;;;;;5013045;28;20053;-79
2022/07/15 12:34:58;;;;;;;0.82;0.38;;;21.50;99.90;;;;;;5001910;28;20045;-81
2022/07/15 12:37:34;;;;;;;1.23;0.20;;;21.60;99.90;;;;;;5008526;28;20042;-82
2022/07/15 12:40:06;;;;;;;1.27;0.10;;;21.50;99.90;;;;;;5008372;28;20049;-84
2022/07/15 12:42:54;;;;;;;6.40;0.50;;;21.60;99.90;;;;;;4999766;28;20037;-83
2022/07/15 12:45:48;;;;;;;1.88;0.10;;;21.70;99.70;;;;;;5015025;28;20135;-84
2022/07/15 12:48:14;;;;;;;5.40;0.20;;;21.90;99.90;;;;;;5023445;28;20417;-79
2022/07/15 12:50:46;;;;;;;1.20;0.17;;;21.90;99.80;;;;;;5011333;28;20083;-81
2022/07/15 12:53:12;;;;;;;1.05;0.32;;;22.00;99.90;;;;;;5011579;28;20107;-78
2022/07/15 12:55:47;;;;;;;1.33;0.20;;;22.20;99.90;;;;;;4992906;28;20037;-80
2022/07/15 12:58:17;;;;;;;5.78;0.30;;;22.50;99.00;;;;;;5024100;28;20060;-82
2022/07/15 13:00:50;;;;;;;2.00;0.30;;;22.80;99.40;;;;;;5014109;28;20666;-82
2022/07/15 13:03:20;;;;;;;7.55;0.40;;;23.10;99.30;;;;;;4991716;28;20052;-81
2022/07/15 13:05:52;;;;;;;1.75;0.22;;;23.50;99.50;;;;;;5019289;28;20045;-83
2022/07/15 13:08:23;;;;;;;3.38;0.20;;;23.60;98.60;;;;;;5003449;28;20045;-81
2022/07/15 13:10:52;;;;;;;2.25;0.20;;;23.70;98.00;;;;;;5022385;28;20041;-79
2022/07/15 13:13:19;;;;;;;2.67;0.20;;;23.80;98.50;;;;;;5008577;28;20128;-82